Time;durP1;ratioP1;P1;durP2;ratioP2;P2;SDS_P1;SDS_P2;PMS_P1;PMS_P2;Temp;Humidity;BMP_temperature;BMP_pressure;BME280_temperature;BME280_humidity;BME280_pressure;Samples;Min_cycle;Max_cycle;Signal;HPM_P1;HPM_P2
2023/03/07 00:00:01;;;;;;;61.60;14.00;;;9.10;77.30;;;;;;5044441;28;20109;-55
2023/03/07 00:02:26;;;;;;;69.57;15.60;;;9.10;77.80;;;;;;5059525;28;20040;-55
2023/03/07 00:04:52;;;;;;;57.28;15.18;;;9.00;77.80;;;;;;5044237;28;20040;-55
2023/03/07 00:07:17;;;;;;;61.65;14.52;;;9.00;77.20;;;;;;5044341;28;20017;-55
2023/03/07 00:09:43;;;;;;;67.88;14.00;;;9.00;77.20;;;;;;5044396;28;20064;-55
2023/03/07 00:12:09;;;;;;;75.80;15.43;;;9.00;77.30;;;;;;5044349;28;20026;-55
2023/03/07 00:14:34;;;;;;;64.47;13.60;;;9.00;77.40;;;;;;5044359;28;20168;-55
2023/03/07 00:17:00;;;;;;;69.22;14.93;;;9.00;78.10;;;;;;5044116;28;20109;-55
2023/03/07 00:19:25;;;;;;;59.10;13.75;;;9.00;77.30;;;;;;5044314;28;20040;-55
2023/03/07 00:21:51;;;;;;;52.63;12.95;;;9.00;77.50;;;;;;5043838;28;20029;-55
2023/03/07 00:24:16;;;;;;;77.88;14.43;;;9.00;77.50;;;;;;5042646;28;20064;-55
2023/03/07 00:26:42;;;;;;;58.72;13.40;;;9.00;77.50;;;;;;5044122;28;20033;-55
2023/03/07 00:29:08;;;;;;;70.68;14.63;;;9.00;77.50;;;;;;5043922;28;20120;-55
2023/03/07 00:31:34;;;;;;;55.60;12.45;;;9.00;77.40;;;;;;5043763;28;20032;-55
2023/03/07 00:33:59;;;;;;;55.85;12.82;;;8.90;77.40;;;;;;5047718;28;20104;-55
2023/03/07 00:36:25;;;;;;;44.83;13.02;;;8.90;77.30;;;;;;5047767;28;20085;-55
2023/03/07 00:38:51;;;;;;;48.17;12.73;;;8.90;78.00;;;;;;5046514;28;20025;-55
2023/03/07 00:41:24;;;;;;;52.35;13.68;;;8.90;77.50;;;;;;5047398;28;20032;-55
2023/03/07 00:43:50;;;;;;;49.13;12.07;;;8.90;77.60;;;;;;5047636;28;20021;-55
2023/03/07 00:46:16;;;;;;;60.28;12.45;;;8.90;77.90;;;;;;5047490;28;20108;-55
2023/03/07 00:48:42;;;;;;;58.58;12.35;;;8.80;78.70;;;;;;5047350;28;20047;-56
2023/03/07 00:51:09;;;;;;;49.40;11.82;;;8.90;78.30;;;;;;5047546;28;20053;-55
2023/03/07 00:53:35;;;;;;;38.88;11.88;;;8.80;78.50;;;;;;5047199;28;20048;-55
2023/03/07 00:56:05;;;;;;;49.47;11.93;;;8.80;78.50;;;;;;5047195;28;20033;-55
2023/03/07 00:58:33;;;;;;;42.45;12.10;;;8.80;78.50;;;;;;5047238;28;20376;-55
2023/03/07 01:00:58;;;;;;;52.17;12.43;;;8.80;78.60;;;;;;5047209;28;20037;-55
2023/03/07 01:03:24;;;;;;;43.08;10.95;;;8.80;79.30;;;;;;5047221;28;20040;-55
2023/03/07 01:05:50;;;;;;;49.85;11.35;;;8.80;78.70;;;;;;5046954;28;20033;-57
2023/03/07 01:08:16;;;;;;;39.65;11.02;;;8.80;78.70;;;;;;5046799;28;20025;-57
2023/03/07 01:10:42;;;;;;;40.70;11.00;;;8.80;78.80;;;;;;5047001;28;20536;-56
2023/03/07 01:13:08;;;;;;;41.10;10.80;;;8.80;78.80;;;;;;5046755;28;20028;-57
2023/03/07 01:15:34;;;;;;;39.70;11.27;;;8.80;79.40;;;;;;5046974;28;20090;-57
2023/03/07 01:18:00;;;;;;;40.15;10.32;;;8.70;78.60;;;;;;5047019;28;20025;-57
2023/03/07 01:20:25;;;;;;;32.83;10.55;;;8.80;78.70;;;;;;5046768;28;20029;-57
2023/03/07 01:22:51;;;;;;;43.35;10.75;;;8.70;78.50;;;;;;5046883;28;20030;-57
2023/03/07 01:25:16;;;;;;;39.90;10.60;;;8.80;78.60;;;;;;5045571;28;20038;-57
2023/03/07 01:27:42;;;;;;;32.60;10.20;;;8.70;78.60;;;;;;5047712;28;20028;-57
2023/03/07 01:30:08;;;;;;;36.30;10.48;;;8.70;78.50;;;;;;5047326;28;20045;-56
2023/03/07 01:32:34;;;;;;;36.72;10.95;;;8.70;78.50;;;;;;5046952;28;20076;-57
2023/03/07 01:34:59;;;;;;;27.48;10.60;;;8.70;78.60;;;;;;5046266;28;20033;-57
2023/03/07 01:37:25;;;;;;;29.20;11.15;;;8.70;78.60;;;;;;5047027;28;20035;-56
2023/03/07 01:39:51;;;;;;;39.63;12.05;;;8.70;78.50;;;;;;5046565;28;20137;-57
2023/03/07 01:42:17;;;;;;;30.20;11.50;;;8.70;78.50;;;;;;5046448;28;20040;-57
2023/03/07 01:45:03;;;;;;;36.35;11.10;;;8.70;78.50;;;;;;5045537;28;20040;-57
2023/03/07 01:47:29;;;;;;;35.92;11.65;;;8.70;78.50;;;;;;5046347;28;20029;-57
2023/03/07 01:49:54;;;;;;;34.75;11.85;;;8.70;78.50;;;;;;5046076;28;20045;-57
2023/03/07 01:52:24;;;;;;;32.53;11.00;;;8.70;78.50;;;;;;5045123;28;20032;-57
2023/03/07 01:54:53;;;;;;;33.38;10.85;;;8.70;78.50;;;;;;5045014;28;20104;-57
2023/03/07 01:57:19;;;;;;;32.83;10.25;;;8.60;78.40;;;;;;5046168;28;20091;-57
2023/03/07 01:59:46;;;;;;;30.60;10.77;;;8.70;78.50;;;;;;5046124;28;20037;-57
2023/03/07 02:02:15;;;;;;;35.58;11.77;;;8.60;78.50;;;;;;5028207;28;20060;-57
2023/03/07 02:04:55;;;;;;;35.63;12.30;;;8.70;78.50;;;;;;5028560;28;20450;-57
2023/03/07 02:07:22;;;;;;;22.77;11.48;;;8.60;78.40;;;;;;5044790;28;20033;-57
2023/03/07 02:09:48;;;;;;;40.70;12.85;;;8.60;78.50;;;;;;5044567;28;20041;-57
2023/03/07 02:12:14;;;;;;;27.50;12.82;;;8.60;78.40;;;;;;5045053;28;20044;-57
2023/03/07 02:14:41;;;;;;;33.83;12.25;;;8.60;78.50;;;;;;5027959;28;20026;-57
2023/03/07 02:17:07;;;;;;;38.42;12.68;;;8.60;78.40;;;;;;5045934;28;20053;-56
2023/03/07 02:19:40;;;;;;;27.48;11.13;;;8.60;78.50;;;;;;5044474;28;20032;-56
2023/03/07 02:22:12;;;;;;;34.92;13.00;;;8.60;78.50;;;;;;5045955;28;20488;-57
2023/03/07 02:24:42;;;;;;;26.42;11.18;;;8.60;79.20;;;;;;5028362;28;20052;-57
2023/03/07 02:27:08;;;;;;;25.70;10.77;;;8.50;78.40;;;;;;5028133;28;20021;-57
2023/03/07 02:29:33;;;;;;;30.40;10.70;;;8.50;78.50;;;;;;5044232;28;20032;-57
2023/03/07 02:31:59;;;;;;;20.38;10.50;;;8.50;78.50;;;;;;5045700;28;20025;-57
2023/03/07 02:34:28;;;;;;;26.63;11.57;;;8.50;78.40;;;;;;5045738;28;20037;-57
2023/03/07 02:37:23;;;;;;;29.40;10.73;;;8.50;78.40;;;;;;5045190;28;20033;-56
2023/03/07 02:39:48;;;;;;;19.75;10.85;;;8.50;78.40;;;;;;5045613;28;20040;-57
2023/03/07 02:42:17;;;;;;;28.17;12.48;;;8.50;78.40;;;;;;5044212;28;20029;-57
2023/03/07 02:44:44;;;;;;;26.63;12.02;;;8.50;78.40;;;;;;5043928;28;20409;-57
2023/03/07 02:47:10;;;;;;;23.42;11.32;;;8.50;78.40;;;;;;5045326;28;20044;-57
2023/03/07 02:49:35;;;;;;;22.25;10.82;;;8.50;78.40;;;;;;5045164;28;20477;-57
2023/03/07 02:52:01;;;;;;;27.73;10.82;;;8.50;78.40;;;;;;5045054;28;20018;-57
2023/03/07 02:54:27;;;;;;;25.70;11.25;;;8.50;78.40;;;;;;5044979;28;20519;-57
2023/03/07 02:56:53;;;;;;;25.67;11.35;;;8.50;78.40;;;;;;5045053;28;20097;-57
2023/03/07 02:59:18;;;;;;;21.85;11.43;;;8.40;78.30;;;;;;5045050;28;20044;-57
2023/03/07 03:01:44;;;;;;;25.00;11.02;;;8.50;78.30;;;;;;5045159;28;20029;-57
2023/03/07 03:04:09;;;;;;;23.85;11.55;;;8.50;78.30;;;;;;5044908;28;20362;-56
2023/03/07 03:06:35;;;;;;;24.63;11.85;;;8.50;78.30;;;;;;5045161;28;20079;-57
2023/03/07 03:09:01;;;;;;;21.38;10.95;;;8.40;78.30;;;;;;5044811;28;20121;-57
2023/03/07 03:11:26;;;;;;;20.73;11.23;;;8.40;78.50;;;;;;5044911;28;20108;-57
2023/03/07 03:13:52;;;;;;;26.65;11.32;;;8.40;78.40;;;;;;5044934;28;20049;-57
2023/03/07 03:16:17;;;;;;;22.13;12.02;;;8.40;78.50;;;;;;5045035;28;20030;-57
2023/03/07 03:18:43;;;;;;;26.58;11.30;;;8.40;78.60;;;;;;5044866;28;20036;-57
2023/03/07 03:21:09;;;;;;;19.15;10.02;;;8.40;78.60;;;;;;5044757;28;20097;-57
2023/03/07 03:23:35;;;;;;;22.13;10.98;;;8.40;78.40;;;;;;5044846;28;20045;-57
2023/03/07 03:26:04;;;;;;;19.92;10.23;;;8.40;78.30;;;;;;5044737;28;20100;-56
2023/03/07 03:28:29;;;;;;;21.02;10.60;;;8.40;78.30;;;;;;5044837;28;20099;-57
2023/03/07 03:31:03;;;;;;;22.80;10.38;;;8.30;78.30;;;;;;5044883;28;20030;-57
2023/03/07 03:33:29;;;;;;;22.73;10.65;;;8.30;78.40;;;;;;5044707;28;20549;-57
2023/03/07 03:35:56;;;;;;;22.52;10.23;;;8.30;78.30;;;;;;5044447;28;20065;-57
2023/03/07 03:38:21;;;;;;;17.95;10.68;;;8.30;78.30;;;;;;5044711;28;20204;-57
2023/03/07 03:40:47;;;;;;;20.38;10.38;;;8.30;78.30;;;;;;5044648;28;20108;-57
2023/03/07 03:43:13;;;;;;;20.42;9.55;;;8.30;78.30;;;;;;5044433;28;20056;-57
2023/03/07 03:45:39;;;;;;;20.55;10.00;;;8.30;78.30;;;;;;5044559;28;20033;-57
2023/03/07 03:48:05;;;;;;;20.13;9.65;;;8.30;78.20;;;;;;5044525;28;20065;-57
2023/03/07 03:50:31;;;;;;;21.50;10.27;;;8.30;78.20;;;;;;5043036;28;20029;-57
2023/03/07 03:52:56;;;;;;;16.42;8.98;;;8.20;78.20;;;;;;5044486;28;20030;-57
2023/03/07 03:55:22;;;;;;;21.77;9.32;;;8.20;78.10;;;;;;5044562;28;20208;-56
2023/03/07 03:57:47;;;;;;;16.75;9.70;;;8.20;78.70;;;;;;5044473;28;20056;-57
2023/03/07 04:00:14;;;;;;;16.08;9.52;;;8.20;78.10;;;;;;5044325;28;20128;-57
2023/03/07 04:02:41;;;;;;;20.75;9.88;;;8.20;78.20;;;;;;5044448;28;20061;-57
2023/03/07 04:05:07;;;;;;;15.88;9.65;;;8.20;78.10;;;;;;5044179;28;20087;-57
2023/03/07 04:07:32;;;;;;;15.27;9.13;;;8.20;77.90;;;;;;5047039;28;20059;-57
2023/03/07 04:09:58;;;;;;;15.10;8.63;;;8.10;77.80;;;;;;5048321;28;20060;-57
2023/03/07 04:12:23;;;;;;;15.77;8.82;;;8.10;77.90;;;;;;5048260;28;20025;-57
2023/03/07 04:14:49;;;;;;;14.48;8.80;;;8.10;77.80;;;;;;5048087;28;20025;-57
2023/03/07 04:17:14;;;;;;;14.57;9.07;;;8.10;77.80;;;;;;5048213;28;20453;-57
2023/03/07 04:19:40;;;;;;;15.40;8.95;;;8.10;77.80;;;;;;5047875;28;20034;-57
2023/03/07 04:22:06;;;;;;;15.85;9.02;;;8.10;77.80;;;;;;5047851;28;20022;-57
2023/03/07 04:24:31;;;;;;;21.75;9.50;;;8.10;77.80;;;;;;5047869;28;20053;-57
2023/03/07 04:26:57;;;;;;;15.45;8.65;;;8.10;77.70;;;;;;5046448;28;20481;-57
2023/03/07 04:29:23;;;;;;;17.17;9.75;;;8.10;77.70;;;;;;5046341;28;20037;-57
2023/03/07 04:31:48;;;;;;;47.47;12.35;;;8.10;77.70;;;;;;5047886;28;20033;-57
2023/03/07 04:34:14;;;;;;;35.08;12.63;;;8.00;77.60;;;;;;5047635;28;20025;-57
2023/03/07 04:36:39;;;;;;;25.80;11.13;;;8.00;77.60;;;;;;5047641;28;20045;-57
2023/03/07 04:39:05;;;;;;;32.53;13.02;;;8.00;77.50;;;;;;5062876;28;20117;-57
2023/03/07 04:41:31;;;;;;;27.42;12.50;;;8.00;77.60;;;;;;5046338;28;20117;-57
2023/03/07 04:43:56;;;;;;;34.45;11.43;;;8.00;77.60;;;;;;5047560;28;20022;-57
2023/03/07 04:46:22;;;;;;;30.83;12.07;;;8.00;77.70;;;;;;5047619;28;20044;-57
2023/03/07 04:48:48;;;;;;;44.72;11.98;;;8.00;77.50;;;;;;5047455;28;20129;-56
2023/03/07 04:51:13;;;;;;;27.23;10.23;;;8.00;77.50;;;;;;5047819;28;20021;-57
2023/03/07 04:53:39;;;;;;;25.70;10.65;;;8.00;77.50;;;;;;5047392;28;20021;-57
2023/03/07 04:56:06;;;;;;;28.70;11.85;;;8.00;77.50;;;;;;5047309;28;20045;-57
2023/03/07 04:58:32;;;;;;;27.27;11.80;;;8.00;77.50;;;;;;5046159;28;20029;-56
2023/03/07 05:00:59;;;;;;;35.13;11.93;;;7.90;77.40;;;;;;5047286;28;20041;-57
2023/03/07 05:03:26;;;;;;;30.52;10.40;;;7.90;77.30;;;;;;5047242;28;20030;-57
2023/03/07 05:05:52;;;;;;;26.45;10.80;;;7.90;77.30;;;;;;5046077;28;20093;-57
2023/03/07 05:08:17;;;;;;;22.23;10.00;;;8.00;77.40;;;;;;5047132;28;20025;-57
2023/03/07 05:10:43;;;;;;;25.52;10.05;;;7.90;77.30;;;;;;5047104;28;20029;-57
2023/03/07 05:13:09;;;;;;;17.13;9.73;;;7.90;77.20;;;;;;5029363;28;20025;-57
2023/03/07 05:15:35;;;;;;;21.77;9.82;;;7.90;77.20;;;;;;5046977;28;20085;-57
2023/03/07 05:18:01;;;;;;;22.25;10.38;;;8.10;77.30;;;;;;5045725;28;20446;-57
2023/03/07 05:20:28;;;;;;;16.63;10.25;;;8.00;77.90;;;;;;5046757;28;20094;-57
2023/03/07 05:22:54;;;;;;;20.70;9.55;;;7.90;77.20;;;;;;5045756;28;20045;-57
2023/03/07 05:25:21;;;;;;;18.55;9.40;;;7.90;77.20;;;;;;5046445;28;20434;-57
2023/03/07 05:27:47;;;;;;;26.67;9.68;;;7.90;77.10;;;;;;5045799;28;20079;-56
2023/03/07 05:30:12;;;;;;;27.20;9.30;;;8.10;77.20;;;;;;5046699;28;20025;-57
2023/03/07 05:32:38;;;;;;;28.90;9.93;;;7.90;77.20;;;;;;5046775;28;20025;-57
2023/03/07 05:35:04;;;;;;;25.40;10.45;;;7.90;77.70;;;;;;5045188;28;20026;-57
2023/03/07 05:37:29;;;;;;;22.08;10.05;;;7.90;78.20;;;;;;5045215;28;20133;-57
2023/03/07 05:39:55;;;;;;;22.50;9.43;;;7.90;78.40;;;;;;5046689;28;20369;-56
2023/03/07 05:42:20;;;;;;;19.80;9.32;;;7.80;78.10;;;;;;5045207;28;20135;-57
2023/03/07 05:44:46;;;;;;;23.42;9.13;;;7.80;78.40;;;;;;5046334;28;20044;-57
2023/03/07 05:47:12;;;;;;;16.85;8.90;;;7.80;78.40;;;;;;5046511;28;20093;-57
2023/03/07 05:49:37;;;;;;;20.17;9.57;;;7.80;78.30;;;;;;5046387;28;20362;-57
2023/03/07 05:52:03;;;;;;;20.42;8.95;;;7.90;78.40;;;;;;5046269;28;20064;-57
2023/03/07 05:54:28;;;;;;;18.67;8.88;;;7.90;78.40;;;;;;5046184;28;20034;-57
2023/03/07 05:56:54;;;;;;;14.75;9.38;;;7.80;78.40;;;;;;5044902;28;20033;-57
2023/03/07 05:59:19;;;;;;;19.52;8.35;;;7.80;78.40;;;;;;5046042;28;20097;-57
2023/03/07 06:01:45;;;;;;;18.60;9.38;;;7.80;78.30;;;;;;5046245;28;20030;-57
2023/03/07 06:04:11;;;;;;;16.45;8.43;;;7.80;78.40;;;;;;5045885;28;20033;-57
2023/03/07 06:06:36;;;;;;;22.77;9.50;;;7.80;78.40;;;;;;5044632;28;20029;-57
2023/03/07 06:09:04;;;;;;;22.98;8.98;;;7.80;78.30;;;;;;5045833;28;20022;-57
2023/03/07 06:11:30;;;;;;;14.43;8.13;;;7.80;78.30;;;;;;5045878;28;20022;-57
2023/03/07 06:13:56;;;;;;;17.38;9.10;;;7.80;78.30;;;;;;5045858;28;20021;-57
2023/03/07 06:16:21;;;;;;;18.63;8.45;;;7.80;78.40;;;;;;5046002;28;20511;-57
2023/03/07 06:18:47;;;;;;;20.58;8.95;;;7.80;78.40;;;;;;5045843;28;20029;-57
2023/03/07 06:21:14;;;;;;;16.52;8.30;;;7.80;78.30;;;;;;5045917;28;20033;-57
2023/03/07 06:23:40;;;;;;;17.17;8.13;;;7.80;78.20;;;;;;5028067;28;20045;-57
2023/03/07 06:26:07;;;;;;;17.50;8.13;;;7.70;78.30;;;;;;5045769;28;20029;-57
2023/03/07 06:28:33;;;;;;;22.15;7.95;;;7.80;79.00;;;;;;5045776;28;20030;-57
2023/03/07 06:30:58;;;;;;;20.15;8.00;;;7.80;78.30;;;;;;5043835;28;20101;-57
2023/03/07 06:33:24;;;;;;;15.38;7.65;;;7.70;78.30;;;;;;5045629;28;20056;-57
2023/03/07 06:35:49;;;;;;;13.18;7.70;;;7.70;78.30;;;;;;5037631;28;20447;-57
2023/03/07 06:38:15;;;;;;;13.30;8.20;;;7.70;78.30;;;;;;5040781;28;20041;-57
2023/03/07 06:40:41;;;;;;;20.00;8.15;;;7.70;78.30;;;;;;5045450;28;20064;-57
2023/03/07 06:43:06;;;;;;;17.33;7.70;;;7.70;78.30;;;;;;5043768;28;20091;-57
2023/03/07 06:45:32;;;;;;;14.38;7.22;;;7.70;78.20;;;;;;5060535;28;20033;-56
2023/03/07 06:47:57;;;;;;;14.13;7.78;;;7.70;78.10;;;;;;5045251;28;20096;-57
2023/03/07 06:50:23;;;;;;;13.63;7.40;;;7.70;78.90;;;;;;5044964;28;20036;-57
2023/03/07 06:52:50;;;;;;;13.90;6.80;;;7.70;78.20;;;;;;5045183;28;20060;-57
2023/03/07 06:55:19;;;;;;;11.38;7.32;;;7.70;78.90;;;;;;5045048;28;20507;-57
2023/03/07 06:57:44;;;;;;;13.40;7.22;;;7.70;78.20;;;;;;5045273;28;20527;-57
2023/03/07 07:00:10;;;;;;;15.20;7.82;;;7.70;78.20;;;;;;5060104;28;20044;-57
2023/03/07 07:02:36;;;;;;;15.82;7.40;;;7.70;78.10;;;;;;5044773;28;20088;-57
2023/03/07 07:05:02;;;;;;;17.10;6.88;;;7.70;78.10;;;;;;5044845;28;20056;-57
2023/03/07 07:07:28;;;;;;;16.00;7.40;;;7.70;78.10;;;;;;5060221;28;20029;-57
2023/03/07 07:09:53;;;;;;;10.73;7.05;;;7.70;78.00;;;;;;5043464;28;20025;-57
2023/03/07 07:12:19;;;;;;;14.43;7.05;;;7.70;77.90;;;;;;5044820;28;20057;-57
2023/03/07 07:14:45;;;;;;;13.32;7.07;;;7.70;77.90;;;;;;5044762;28;20110;-57
2023/03/07 07:17:10;;;;;;;18.55;7.10;;;7.70;77.90;;;;;;5044757;28;20029;-57
2023/03/07 07:19:36;;;;;;;11.50;6.85;;;7.70;77.90;;;;;;5044764;28;20029;-57
2023/03/07 07:22:01;;;;;;;13.00;7.00;;;7.70;77.80;;;;;;5044605;28;20061;-57
2023/03/07 07:24:27;;;;;;;10.45;6.70;;;7.70;77.70;;;;;;5044665;28;20030;-57
2023/03/07 07:26:54;;;;;;;15.57;6.55;;;7.70;77.70;;;;;;5044664;28;20402;-57
2023/03/07 07:29:20;;;;;;;15.50;7.18;;;7.70;77.70;;;;;;5044629;28;20089;-57
2023/03/07 07:31:46;;;;;;;11.82;6.13;;;7.70;77.50;;;;;;5044651;28;20056;-57
2023/03/07 07:34:11;;;;;;;14.50;7.47;;;7.70;77.50;;;;;;5059873;28;20017;-57
2023/03/07 07:36:37;;;;;;;13.68;6.53;;;7.70;77.50;;;;;;5043219;28;20438;-57
2023/03/07 07:39:04;;;;;;;12.80;5.88;;;7.70;77.30;;;;;;5043587;28;20032;-57
2023/03/07 07:41:30;;;;;;;14.02;5.72;;;7.70;77.10;;;;;;5059705;28;20081;-57
2023/03/07 07:43:56;;;;;;;15.90;6.97;;;7.70;77.10;;;;;;5046032;28;20396;-57
2023/03/07 07:46:22;;;;;;;9.40;6.18;;;7.80;77.40;;;;;;5046498;28;20518;-57
2023/03/07 07:48:47;;;;;;;14.23;7.57;;;7.80;77.30;;;;;;5046552;28;20118;-57
2023/03/07 07:51:13;;;;;;;15.02;6.55;;;7.80;77.20;;;;;;5046371;28;20495;-57
2023/03/07 07:53:38;;;;;;;24.10;7.40;;;7.80;77.00;;;;;;5046358;28;20022;-57
2023/03/07 07:56:04;;;;;;;23.20;6.70;;;7.80;77.00;;;;;;5046631;28;20373;-57
2023/03/07 07:58:30;;;;;;;25.65;7.05;;;7.80;76.90;;;;;;5048219;28;20052;-57
2023/03/07 08:00:55;;;;;;;22.17;6.88;;;7.80;77.10;;;;;;5048498;28;20033;-57
2023/03/07 08:03:21;;;;;;;19.63;6.53;;;7.80;77.00;;;;;;5046895;28;20081;-57
2023/03/07 08:05:47;;;;;;;16.45;6.25;;;7.80;77.00;;;;;;5048286;28;20045;-57
2023/03/07 08:08:19;;;;;;;12.20;6.35;;;7.80;77.00;;;;;;5048229;28;20090;-57
2023/03/07 08:10:45;;;;;;;39.35;7.97;;;7.80;77.00;;;;;;5048116;28;20021;-57
2023/03/07 08:13:14;;;;;;;25.52;7.40;;;7.90;77.00;;;;;;5048000;28;20049;-57
2023/03/07 08:15:40;;;;;;;15.30;6.75;;;7.90;76.80;;;;;;5047578;28;20132;-57
2023/03/07 08:18:05;;;;;;;25.05;6.53;;;7.90;76.70;;;;;;5063574;28;20085;-57
2023/03/07 08:20:31;;;;;;;30.35;8.10;;;7.90;76.50;;;;;;5067770;28;20036;-57
2023/03/07 08:22:57;;;;;;;23.30;6.60;;;8.00;76.60;;;;;;5066615;28;20049;-57
2023/03/07 08:25:23;;;;;;;53.65;8.43;;;8.00;76.50;;;;;;5061584;28;20026;-57
2023/03/07 08:27:53;;;;;;;35.80;7.63;;;8.00;76.30;;;;;;5048024;28;20438;-57
2023/03/07 08:30:26;;;;;;;23.98;7.40;;;8.00;76.30;;;;;;5047967;28;20032;-56
2023/03/07 08:32:52;;;;;;;32.67;7.65;;;8.10;76.30;;;;;;5047649;28;20033;-57
2023/03/07 08:35:18;;;;;;;37.95;7.95;;;8.10;76.40;;;;;;5050911;28;20040;-57
2023/03/07 08:37:43;;;;;;;31.27;6.95;;;8.10;76.30;;;;;;5054919;28;20029;-57
2023/03/07 08:40:10;;;;;;;39.45;8.50;;;8.10;76.10;;;;;;5047600;28;20026;-57
2023/03/07 08:42:35;;;;;;;48.58;10.38;;;8.10;76.00;;;;;;5047162;28;20033;-57
2023/03/07 08:45:01;;;;;;;49.20;10.27;;;8.20;76.00;;;;;;5046322;28;20361;-57
2023/03/07 08:47:26;;;;;;;82.63;13.35;;;8.20;75.90;;;;;;5046100;28;20060;-57
2023/03/07 08:49:52;;;;;;;42.65;8.95;;;8.20;76.50;;;;;;5034408;28;20029;-57
2023/03/07 08:52:17;;;;;;;53.13;11.30;;;8.20;75.90;;;;;;5046687;28;20036;-57
2023/03/07 08:54:43;;;;;;;80.35;12.60;;;8.20;75.90;;;;;;5064015;28;20037;-57
2023/03/07 08:57:08;;;;;;;64.70;10.75;;;8.20;75.90;;;;;;5055655;28;20040;-57
2023/03/07 08:59:34;;;;;;;43.83;8.88;;;8.20;75.90;;;;;;5044487;28;20122;-57
2023/03/07 09:02:00;;;;;;;93.45;12.85;;;8.30;75.80;;;;;;5046379;28;20021;-57
2023/03/07 09:04:25;;;;;;;81.80;12.63;;;8.30;75.80;;;;;;5046580;28;20113;-57
2023/03/07 09:06:51;;;;;;;126.07;16.15;;;8.30;75.80;;;;;;5045203;28;20021;-57
2023/03/07 09:09:16;;;;;;;84.40;12.82;;;8.30;75.90;;;;;;5044328;28;20032;-57
2023/03/07 09:11:42;;;;;;;55.13;9.13;;;8.30;75.80;;;;;;5045881;28;20036;-57
2023/03/07 09:14:07;;;;;;;51.53;8.75;;;8.40;75.40;;;;;;5045151;28;20036;-57
2023/03/07 09:16:33;;;;;;;59.45;9.90;;;8.40;75.20;;;;;;5044677;28;20450;-57
2023/03/07 09:18:58;;;;;;;76.85;14.10;;;8.50;75.30;;;;;;5043485;28;20021;-57
2023/03/07 09:21:24;;;;;;;54.83;11.23;;;8.50;75.20;;;;;;5041914;28;20035;-57
2023/03/07 09:23:50;;;;;;;134.23;15.90;;;8.50;75.00;;;;;;5042120;28;20052;-57
2023/03/07 09:26:15;;;;;;;67.47;11.98;;;8.50;75.60;;;;;;5046234;28;20060;-57
2023/03/07 09:28:41;;;;;;;93.55;12.57;;;8.50;74.90;;;;;;5045661;28;20029;-57
2023/03/07 09:31:08;;;;;;;57.42;10.25;;;8.50;74.60;;;;;;5046367;28;20462;-57
2023/03/07 09:33:33;;;;;;;87.45;11.77;;;8.60;74.50;;;;;;5045143;28;20078;-57
2023/03/07 09:36:02;;;;;;;59.17;10.10;;;8.60;74.40;;;;;;5045941;28;20033;-57
2023/03/07 09:38:27;;;;;;;50.95;9.25;;;8.70;74.50;;;;;;5032039;28;20033;-57
2023/03/07 09:40:53;;;;;;;59.00;11.02;;;8.70;74.50;;;;;;5044818;28;20064;-57
2023/03/07 09:43:20;;;;;;;51.28;10.40;;;8.70;74.30;;;;;;5043343;28;20030;-57
2023/03/07 09:46:10;;;;;;;61.75;10.98;;;8.90;74.40;;;;;;5044403;28;20461;-57
2023/03/07 09:48:54;;;;;;;55.05;10.52;;;8.80;74.20;;;;;;5043747;28;20097;-57
2023/03/07 09:51:36;;;;;;;40.75;8.75;;;8.80;74.30;;;;;;5044371;28;20040;-57
2023/03/07 09:54:16;;;;;;;59.95;10.25;;;8.80;74.90;;;;;;5044219;28;20021;-57
2023/03/07 09:56:57;;;;;;;55.55;9.55;;;8.80;74.50;;;;;;5044493;28;20040;-57
2023/03/07 09:59:55;;;;;;;54.13;9.35;;;8.80;74.30;;;;;;5046538;28;20041;-57
2023/03/07 10:02:34;;;;;;;55.60;9.60;;;8.90;74.40;;;;;;5059490;28;20072;-57
2023/03/07 10:05:12;;;;;;;62.30;10.45;;;8.80;74.10;;;;;;5049839;28;20445;-57
2023/03/07 10:07:38;;;;;;;49.03;9.77;;;8.90;74.30;;;;;;5045335;28;20033;-57
2023/03/07 10:10:06;;;;;;;53.80;9.52;;;8.90;74.00;;;;;;5047511;28;20028;-57
2023/03/07 10:13:14;;;;;;;57.28;9.93;;;8.90;73.90;;;;;;5036712;28;20026;-57
2023/03/07 10:15:44;;;;;;;59.95;10.57;;;8.90;73.90;;;;;;5040931;28;20039;-57
2023/03/07 10:18:12;;;;;;;60.60;10.52;;;8.90;73.70;;;;;;5041985;28;20029;-57
2023/03/07 10:20:51;;;;;;;52.03;11.32;;;8.90;73.70;;;;;;5042381;28;20041;-57
2023/03/07 10:23:27;;;;;;;61.78;11.20;;;8.90;73.70;;;;;;5043363;28;20109;-57
2023/03/07 10:26:06;;;;;;;87.10;12.45;;;8.90;73.70;;;;;;5041766;28;20116;-57
2023/03/07 10:28:32;;;;;;;65.63;12.13;;;9.00;73.80;;;;;;5043247;28;20044;-57
2023/03/07 10:31:17;;;;;;;71.13;12.38;;;9.00;73.70;;;;;;5045888;28;20083;-57
2023/03/07 10:33:45;;;;;;;47.50;11.05;;;9.00;73.70;;;;;;5041621;28;20044;-58
2023/03/07 10:36:37;;;;;;;63.20;11.85;;;9.00;73.80;;;;;;5039737;28;20152;-57
2023/03/07 10:39:14;;;;;;;44.38;9.85;;;9.00;73.90;;;;;;5041248;28;20040;-57
2023/03/07 10:41:40;;;;;;;59.88;9.98;;;9.00;73.70;;;;;;5040202;28;20030;-57
2023/03/07 10:44:05;;;;;;;40.70;9.65;;;9.00;73.60;;;;;;5041624;28;20064;-57
2023/03/07 10:46:31;;;;;;;41.55;8.60;;;9.00;73.90;;;;;;5040961;28;20072;-57
2023/03/07 10:49:06;;;;;;;77.88;12.20;;;9.00;73.70;;;;;;5042666;28;20025;-57
2023/03/07 10:51:53;;;;;;;79.00;11.82;;;9.10;73.70;;;;;;5042938;28;20060;-57
2023/03/07 10:54:23;;;;;;;53.35;10.27;;;9.00;74.10;;;;;;5042795;28;20100;-57
2023/03/07 10:57:09;;;;;;;40.72;10.70;;;9.10;74.20;;;;;;5041388;28;20030;-57
2023/03/07 10:59:35;;;;;;;;;;;9.10;73.80;;;;;;5041706;28;20036;-57
2023/03/07 11:02:01;;;;;;;64.25;10.00;;;9.10;73.40;;;;;;5042048;28;19925;-57
2023/03/07 11:04:29;;;;;;;59.67;11.88;;;9.10;73.40;;;;;;5060825;28;20149;-57
2023/03/07 11:06:58;;;;;;;51.33;10.77;;;9.10;73.40;;;;;;5046518;28;20039;-55
2023/03/07 11:09:27;;;;;;;33.28;7.95;;;9.10;73.20;;;;;;5036034;28;20097;-55
2023/03/07 11:11:59;;;;;;;37.63;8.75;;;9.10;73.20;;;;;;5041713;28;20076;-55
2023/03/07 11:14:26;;;;;;;44.03;10.75;;;9.10;73.20;;;;;;5037380;28;20462;-55
2023/03/07 11:16:56;;;;;;;49.03;9.68;;;9.10;73.30;;;;;;5029474;28;20034;-55
2023/03/07 11:19:36;;;;;;;58.83;11.10;;;9.20;73.40;;;;;;5039124;28;20025;-55
2023/03/07 11:22:16;;;;;;;65.65;11.60;;;9.20;73.60;;;;;;5042746;28;20077;-55
2023/03/07 11:24:50;;;;;;;54.38;11.10;;;9.20;73.40;;;;;;5040385;28;20091;-55
2023/03/07 11:27:37;;;;;;;66.85;12.02;;;9.20;73.60;;;;;;5039373;28;20068;-55
2023/03/07 11:30:12;;;;;;;51.63;10.27;;;9.20;73.60;;;;;;5033962;28;20045;-55
2023/03/07 11:32:39;;;;;;;55.25;10.55;;;9.30;73.70;;;;;;5040001;28;20033;-55
2023/03/07 11:35:12;;;;;;;70.47;11.40;;;9.30;73.80;;;;;;5029659;28;20033;-55
2023/03/07 11:37:39;;;;;;;43.38;9.50;;;9.30;73.80;;;;;;5050593;28;20090;-55
2023/03/07 11:40:43;;;;;;;64.82;14.13;;;9.40;73.10;;;;;;5036148;28;20044;-55
2023/03/07 11:43:12;;;;;;;101.38;14.63;;;9.40;73.50;;;;;;5037021;28;20064;-55
2023/03/07 11:46:15;;;;;;;78.82;13.63;;;9.40;74.00;;;;;;5043334;28;20461;-55
2023/03/07 11:49:00;;;;;;;81.00;14.10;;;9.50;74.30;;;;;;5055799;28;20052;-55
2023/03/07 11:52:06;;;;;;;147.63;24.45;;;9.50;73.90;;;;;;5056982;28;20474;-55
2023/03/07 11:55:12;;;;;;;73.47;13.98;;;9.50;73.70;;;;;;5048905;28;20045;-55
2023/03/07 11:58:15;;;;;;;66.43;14.07;;;9.60;73.60;;;;;;5040584;28;20060;-55
2023/03/07 12:01:01;;;;;;;69.45;13.23;;;9.60;73.60;;;;;;5062864;28;20025;-55
2023/03/07 12:03:46;;;;;;;90.97;15.55;;;9.60;73.50;;;;;;5043012;28;20041;-55
2023/03/07 12:06:23;;;;;;;90.97;15.52;;;9.60;73.50;;;;;;5043390;28;20036;-55
2023/03/07 12:09:13;;;;;;;84.78;15.75;;;9.60;73.60;;;;;;5043715;28;20022;-54
2023/03/07 12:11:57;;;;;;;80.75;15.20;;;9.60;73.80;;;;;;5039154;28;20485;-55
2023/03/07 12:14:44;;;;;;;75.55;16.20;;;9.70;73.80;;;;;;5042348;28;20045;-55
2023/03/07 12:17:15;;;;;;;91.55;17.67;;;9.70;73.70;;;;;;5043928;28;20041;-56
2023/03/07 12:20:01;;;;;;;95.35;17.20;;;9.70;73.70;;;;;;5042901;28;20021;-56
2023/03/07 12:22:31;;;;;;;85.22;15.05;;;9.80;73.80;;;;;;5042059;28;20052;-57
2023/03/07 12:25:16;;;;;;;71.60;14.00;;;9.80;73.50;;;;;;5036702;28;20095;-57
2023/03/07 12:28:04;;;;;;;104.07;16.57;;;9.80;73.30;;;;;;5044666;28;20031;-57
2023/03/07 12:30:38;;;;;;;133.75;19.00;;;9.80;73.50;;;;;;5057281;28;20034;-57
2023/03/07 12:33:05;;;;;;;90.80;16.23;;;9.90;73.60;;;;;;5048180;28;20018;-57
2023/03/07 12:35:38;;;;;;;135.43;18.23;;;10.00;73.70;;;;;;5039522;28;20033;-57
2023/03/07 12:38:11;;;;;;;98.93;16.83;;;9.90;73.30;;;;;;5049020;28;20457;-57
2023/03/07 12:40:40;;;;;;;122.05;16.67;;;10.00;73.50;;;;;;5046021;28;20026;-57
2023/03/07 12:43:28;;;;;;;98.05;16.08;;;10.00;73.60;;;;;;5042349;28;20503;-57
2023/03/07 12:46:02;;;;;;;123.53;16.35;;;10.00;73.50;;;;;;5042872;28;20045;-57
2023/03/07 12:48:42;;;;;;;83.78;14.98;;;10.10;73.40;;;;;;5043626;28;20021;-57